Dai2kousei — JD2542 — position and weather

sailwx.info

Track history (hours):
 
Tides and Currents Weather Stations Pressure Air Temp Water Temp Dewpoint Dewpoint Depression Visibility Wind Speed Wind Dir Waves Ship Positions

Dai2kousei

Last reported at 2016-Jun-20 12:09 UTC. Time now 2016-Jun-24 22:16 UTC.
Position N 34°56' E 139°25'.

Length 77 m; draft 3.7 m.

MMSI: 431000467.

Date/timePositionNaut miles runAvg speedWind from/ knotsBaromVisibWave heightAir tempDewpointWater temp
2016-Jun-20 12:09N 34°56' E 139°25'711.5
2016-Jun-20 11:34N 35°00' E 139°32'1111.4
2016-Jun-20 10:33N 35°08' E 139°42'1010.4
2016-Jun-20 09:33N 35°18' E 139°44'9 9.4
2016-Jun-20 08:33N 35°27' E 139°47'1111.1
2016-Jun-20 07:33N 35°33' E 139°59'7 6.7
2016-Jun-20 06:33N 35°34' E 140°07'0 0.0
2016-Jun-20 05:33N 35°34' E 140°07'0 0.0
2016-Jun-20 04:33N 35°34' E 140°07'0 0.0
2016-Jun-20 03:33N 35°34' E 140°07'0 0.0
2016-Jun-20 02:33N 35°34' E 140°07'0 0.0
2016-Jun-20 01:33N 35°34' E 140°07'0 0.0
2016-Jun-20 00:34N 35°34' E 140°07'0 0.0
2016-Jun-19 23:33N 35°34' E 140°07'0 0.0
2016-Jun-19 22:33N 35°34' E 140°07'0 0.5
2016-Jun-19 21:33N 35°34' E 140°06'2 2.4
2016-Jun-19 20:33N 35°35' E 140°04'0 0.0
2016-Jun-19 19:33N 35°35' E 140°04'0 0.0
2016-Jun-19 18:33N 35°35' E 140°04'0 0.0
2016-Jun-19 17:33N 35°35' E 140°04'0 0.0
2016-Jun-19 16:34N 35°35' E 140°03'0 0.0
2016-Jun-19 15:33N 35°35' E 140°03'0 0.0
2016-Jun-19 14:33N 35°35' E 140°03'0 0.0
2016-Jun-19 13:34N 35°35' E 140°04'0 0.0
2016-Jun-19 12:33N 35°35' E 140°04'0 0.0
2016-Jun-19 11:33N 35°35' E 140°04'0 0.0
2016-Jun-19 10:33N 35°35' E 140°04'0 0.0
2016-Jun-19 09:33N 35°35' E 140°04'0 0.0
2016-Jun-19 08:33N 35°35' E 140°04'0 0.0
2016-Jun-19 07:33N 35°35' E 140°04'0 0.0
2016-Jun-19 06:33N 35°35' E 140°04'0 0.0
2016-Jun-19 05:34N 35°35' E 140°04'0 0.0
2016-Jun-19 04:33N 35°35' E 140°04'0 0.0
2016-Jun-19 03:33N 35°35' E 140°04'0 0.0
2016-Jun-19 02:34N 35°35' E 140°04'0 0.0
2016-Jun-19 01:34N 35°35' E 140°04'0 0.0
2016-Jun-19 00:34N 35°35' E 140°04'0 0.1
2016-Jun-18 23:33N 35°35' E 140°03'0 0.0
2016-Jun-18 22:34N 35°35' E 140°03'0 0.0
2016-Jun-18 21:34N 35°35' E 140°03'0 0.0
2016-Jun-18 20:34N 35°35' E 140°03'0 0.0
2016-Jun-18 19:33N 35°35' E 140°03'0 0.0
2016-Jun-18 18:33N 35°35' E 140°03'0 0.0
2016-Jun-18 17:33N 35°35' E 140°03'0 0.0
2016-Jun-18 16:33N 35°35' E 140°03'7 7.5
2016-Jun-18 15:33N 35°32' E 139°55'9 9.3
2016-Jun-18 14:33N 35°29' E 139°44'0 0.0
2016-Jun-18 13:34N 35°29' E 139°44'0 0.0
2016-Jun-18 12:33N 35°29' E 139°44'0 0.0
2016-Jun-18 11:33N 35°29' E 139°44'0 0.0
2016-Jun-18 10:34N 35°29' E 139°44'0 0.0
2016-Jun-18 09:33N 35°29' E 139°44'0 0.0
2016-Jun-18 08:33N 35°29' E 139°44'0 0.0
2016-Jun-18 07:34N 35°29' E 139°44'0 0.0
2016-Jun-18 06:34N 35°29' E 139°44'0 0.0
2016-Jun-18 05:34N 35°29' E 139°44'1 1.2
2016-Jun-18 04:33N 35°29' E 139°45'0 0.0
2016-Jun-18 03:34N 35°29' E 139°45'0 0.0
2016-Jun-18 02:34N 35°29' E 139°45'0 0.1
2016-Jun-18 01:33N 35°29' E 139°45'0 0.0
2016-Jun-18 00:34N 35°29' E 139°45'0 0.0
2016-Jun-17 23:33N 35°29' E 139°45'0 0.0
2016-Jun-17 22:33N 35°29' E 139°45'0 0.0
2016-Jun-17 21:34N 35°29' E 139°45'0 0.0
2016-Jun-17 20:33N 35°29' E 139°45'0 0.0
2016-Jun-17 19:34N 35°29' E 139°45'0 0.0
2016-Jun-17 18:34N 35°29' E 139°45'0 0.0
2016-Jun-17 17:33N 35°29' E 139°45'0 0.0
2016-Jun-17 16:34N 35°29' E 139°45'0 0.0
2016-Jun-17 15:34N 35°29' E 139°45'0 0.0
2016-Jun-17 14:33N 35°29' E 139°45'0 0.0
2016-Jun-17 13:33N 35°29' E 139°45'0 0.0
2016-Jun-17 12:34N 35°29' E 139°45'0 0.0
2016-Jun-17 11:33N 35°29' E 139°45'0 0.0
2016-Jun-17 10:33N 35°29' E 139°45'0 0.0
2016-Jun-17 09:33N 35°29' E 139°45'0 0.0
2016-Jun-17 08:34N 35°29' E 139°45'0 0.1
2016-Jun-17 07:33N 35°29' E 139°45'1 1.1
2016-Jun-17 06:34N 35°29' E 139°44'0 0.0
2016-Jun-17 05:33N 35°29' E 139°44'0 0.0
2016-Jun-17 04:34N 35°29' E 139°44'0 0.0
2016-Jun-17 03:34N 35°29' E 139°44'0 0.0
2016-Jun-17 02:33N 35°29' E 139°44'0 0.0
2016-Jun-17 01:34N 35°29' E 139°44'0 0.0
2016-Jun-17 00:33N 35°29' E 139°44'0 0.0
2016-Jun-16 23:34N 35°29' E 139°44'0 0.0
2016-Jun-16 22:34N 35°29' E 139°44'0 0.0
2016-Jun-16 21:33N 35°29' E 139°44'1 1.1
2016-Jun-16 20:34N 35°29' E 139°45'6 5.9
2016-Jun-16 19:33N 35°23' E 139°45'9 9.4
2016-Jun-16 18:33N 35°13' E 139°47'  
Track history (hours):
 
Tides and Currents Weather Stations Pressure Air Temp Water Temp Dewpoint Dewpoint Depression Visibility Wind Speed Wind Dir Waves Ship Positions

Dai2kousei

Last reported at 2016-Jun-20 12:09 UTC. Time now 2016-Jun-24 22:16 UTC.
Position N 34°56' E 139°25'.

Length 77 m; draft 3.7 m.

MMSI: 431000467.

Date/timePositionNaut miles runAvg speedWind from/ knotsBaromVisibWave heightAir tempDewpointWater temp
2016-Jun-20 12:09N 34°56' E 139°25'711.5
2016-Jun-20 11:34N 35°00' E 139°32'1111.4
2016-Jun-20 10:33N 35°08' E 139°42'1010.4
2016-Jun-20 09:33N 35°18' E 139°44'9 9.4
2016-Jun-20 08:33N 35°27' E 139°47'1111.1
2016-Jun-20 07:33N 35°33' E 139°59'7 6.7
2016-Jun-20 06:33N 35°34' E 140°07'0 0.0
2016-Jun-20 05:33N 35°34' E 140°07'0 0.0
2016-Jun-20 04:33N 35°34' E 140°07'0 0.0
2016-Jun-20 03:33N 35°34' E 140°07'0 0.0
2016-Jun-20 02:33N 35°34' E 140°07'0 0.0
2016-Jun-20 01:33N 35°34' E 140°07'0 0.0
2016-Jun-20 00:34N 35°34' E 140°07'0 0.0
2016-Jun-19 23:33N 35°34' E 140°07'0 0.0
2016-Jun-19 22:33N 35°34' E 140°07'0 0.5
2016-Jun-19 21:33N 35°34' E 140°06'2 2.4
2016-Jun-19 20:33N 35°35' E 140°04'0 0.0
2016-Jun-19 19:33N 35°35' E 140°04'0 0.0
2016-Jun-19 18:33N 35°35' E 140°04'0 0.0
2016-Jun-19 17:33N 35°35' E 140°04'0 0.0
2016-Jun-19 16:34N 35°35' E 140°03'0 0.0
2016-Jun-19 15:33N 35°35' E 140°03'0 0.0
2016-Jun-19 14:33N 35°35' E 140°03'0 0.0
2016-Jun-19 13:34N 35°35' E 140°04'0 0.0
2016-Jun-19 12:33N 35°35' E 140°04'0 0.0
2016-Jun-19 11:33N 35°35' E 140°04'0 0.0
2016-Jun-19 10:33N 35°35' E 140°04'0 0.0
2016-Jun-19 09:33N 35°35' E 140°04'0 0.0
2016-Jun-19 08:33N 35°35' E 140°04'0 0.0
2016-Jun-19 07:33N 35°35' E 140°04'0 0.0
2016-Jun-19 06:33N 35°35' E 140°04'0 0.0
2016-Jun-19 05:34N 35°35' E 140°04'0 0.0
2016-Jun-19 04:33N 35°35' E 140°04'0 0.0
2016-Jun-19 03:33N 35°35' E 140°04'0 0.0
2016-Jun-19 02:34N 35°35' E 140°04'0 0.0
2016-Jun-19 01:34N 35°35' E 140°04'0 0.0
2016-Jun-19 00:34N 35°35' E 140°04'0 0.1
2016-Jun-18 23:33N 35°35' E 140°03'0 0.0
2016-Jun-18 22:34N 35°35' E 140°03'0 0.0
2016-Jun-18 21:34N 35°35' E 140°03'0 0.0
2016-Jun-18 20:34N 35°35' E 140°03'0 0.0
2016-Jun-18 19:33N 35°35' E 140°03'0 0.0
2016-Jun-18 18:33N 35°35' E 140°03'0 0.0
2016-Jun-18 17:33N 35°35' E 140°03'0 0.0
2016-Jun-18 16:33N 35°35' E 140°03'7 7.5
2016-Jun-18 15:33N 35°32' E 139°55'9 9.3
2016-Jun-18 14:33N 35°29' E 139°44'0 0.0
2016-Jun-18 13:34N 35°29' E 139°44'0 0.0
2016-Jun-18 12:33N 35°29' E 139°44'0 0.0
2016-Jun-18 11:33N 35°29' E 139°44'0 0.0
2016-Jun-18 10:34N 35°29' E 139°44'0 0.0
2016-Jun-18 09:33N 35°29' E 139°44'0 0.0
2016-Jun-18 08:33N 35°29' E 139°44'0 0.0
2016-Jun-18 07:34N 35°29' E 139°44'0 0.0
2016-Jun-18 06:34N 35°29' E 139°44'0 0.0
2016-Jun-18 05:34N 35°29' E 139°44'1 1.2
2016-Jun-18 04:33N 35°29' E 139°45'0 0.0
2016-Jun-18 03:34N 35°29' E 139°45'0 0.0
2016-Jun-18 02:34N 35°29' E 139°45'0 0.1
2016-Jun-18 01:33N 35°29' E 139°45'0 0.0
2016-Jun-18 00:34N 35°29' E 139°45'0 0.0
2016-Jun-17 23:33N 35°29' E 139°45'0 0.0
2016-Jun-17 22:33N 35°29' E 139°45'0 0.0
2016-Jun-17 21:34N 35°29' E 139°45'0 0.0
2016-Jun-17 20:33N 35°29' E 139°45'0 0.0
2016-Jun-17 19:34N 35°29' E 139°45'0 0.0
2016-Jun-17 18:34N 35°29' E 139°45'0 0.0
2016-Jun-17 17:33N 35°29' E 139°45'0 0.0
2016-Jun-17 16:34N 35°29' E 139°45'0 0.0
2016-Jun-17 15:34N 35°29' E 139°45'0 0.0
2016-Jun-17 14:33N 35°29' E 139°45'0 0.0
2016-Jun-17 13:33N 35°29' E 139°45'0 0.0
2016-Jun-17 12:34N 35°29' E 139°45'0 0.0
2016-Jun-17 11:33N 35°29' E 139°45'0 0.0
2016-Jun-17 10:33N 35°29' E 139°45'0 0.0
2016-Jun-17 09:33N 35°29' E 139°45'0 0.0
2016-Jun-17 08:34N 35°29' E 139°45'0 0.1
2016-Jun-17 07:33N 35°29' E 139°45'1 1.1
2016-Jun-17 06:34N 35°29' E 139°44'0 0.0
2016-Jun-17 05:33N 35°29' E 139°44'0 0.0
2016-Jun-17 04:34N 35°29' E 139°44'0 0.0
2016-Jun-17 03:34N 35°29' E 139°44'0 0.0
2016-Jun-17 02:33N 35°29' E 139°44'0 0.0
2016-Jun-17 01:34N 35°29' E 139°44'0 0.0
2016-Jun-17 00:33N 35°29' E 139°44'0 0.0
2016-Jun-16 23:34N 35°29' E 139°44'0 0.0
2016-Jun-16 22:34N 35°29' E 139°44'0 0.0
2016-Jun-16 21:33N 35°29' E 139°44'1 1.1
2016-Jun-16 20:34N 35°29' E 139°45'6 5.9
2016-Jun-16 19:33N 35°23' E 139°45'9 9.4
2016-Jun-16 18:33N 35°13' E 139°47'  

Dump ship's entire track history